Crutchfield, Kentucky
Current Conditions -  °F | °C
As of 11:55 PM on Saturday 25 Oct 2014 (Local Time) from KUCY Reporting Station
Overcast Overcast  
Wind Chill: 57°   Ceiling: 100
Heat Index: 57°   Visibility: 0.25mi
Dew Point: 55°   Wind: 0mph
Humidity: 94%   Direction: NA
Pressure: 30"   Gusts: NA
Location:  36.5506°N, 88.9261°W
Report Text: KUCY 260455Z AUTO 00000KT 1/4SM OVC001 14/13 A3000 RMK
Loading
Personal Weather Stations






























Interactive Weather Map
Tropical Storm Tracking
New forecast layout! Learn more

10-Day Weather Forecast

Advertisements
Track Severe Weather on mobile